Главная страница
METAR-TAF:

METAR-TAF

Аэропорты :

Яунде, Камерун

широта: 03-50N, долгота: 011-31E, высота над уровнем моря: 751 м

Текущие метеонаблюдения

Эта сводка был подготовлена 39 минут назад, в 07:00 UTC
Температура 22°C
Влажность 94%
Давление 1017 hPa
Видимость: 6000 м
Рассеянная облачность на высоте 600 фута

METAR: FKYS 240700Z /////KT 6000 BKN006 22/21 Q1017 TEMPO SCT006

Время: 08:39 (07:39 UTC)

Прогноз

Эта сводка был подготовлена 2 часа и 39 минут назад, в 05:00 UTC
Прогноз действительный с 24-го 06 UTC до 25-го 06 UTC
Ветер 4 Узел от западный
Видимость: 6000 м
Рассеянная облачность на высоте 600 фута
временами
С 24-го 06 UTC до 24-го 07 UTC
Видимость: 2000 м
дымка
изменения
С 24-го 07 UTC до 24-го 09 UTC
Рассеянная облачность на высоте 1600 фута
изменения
С 24-го 21 UTC до 24-го 23 UTC
Рассеянная облачность на высоте 600 фута

TAF: FKYS 240500Z 2406/2506 26004KT 6000 BKN006 TEMPO 2406/2407 2000 BR BECMG 2407/2409 BKN016 BECMG 2421/2423 BKN006

Метеонаблюдения и прогнозы для более 4000 аэропортов (сводки METAR и TAF).

Имеющиеся станции представлены на карте желтыми и красными точками.

Чтобы увидеть название станции, наведите на нее мышь.

Затем щелкните, чтобы увидеть метеонаблюдения и метеопрогнозы.

Управление картой: чтобы увеличить масштаб, щелкните зеленые кнопки с черным крестиком; чтобы уменьшить масштаб, щелкните зеленую кнопку с тире; для просмотра соседних карт щелкайте зеленые стрелки.


METAR-TAF: